createdAt,value
2018-06-30T00:01:32.897Z,10.03
2018-06-30T00:04:01.643Z,10.43
2018-06-30T00:06:30.192Z,9.90
2018-06-30T00:08:59.324Z,10.53
2018-06-30T00:11:28.112Z,9.27
2018-06-30T00:13:56.730Z,10.33
2018-06-30T00:16:25.628Z,11.30
2018-06-30T00:18:54.647Z,11.10
2018-06-30T00:21:23.447Z,10.13
2018-06-30T00:23:52.146Z,10.50
2018-06-30T00:26:21.183Z,10.80
2018-06-30T00:28:49.734Z,11.20
2018-06-30T00:31:18.383Z,11.77
2018-06-30T00:33:46.776Z,10.60
2018-06-30T00:36:15.407Z,11.60
2018-06-30T00:38:44.116Z,10.70
2018-06-30T00:41:12.735Z,11.07
2018-06-30T00:43:41.341Z,11.40
2018-06-30T00:46:10.152Z,11.30
2018-06-30T00:48:40.010Z,11.70
2018-06-30T00:51:09.811Z,11.53
2018-06-30T00:53:38.709Z,12.23
2018-06-30T00:56:07.993Z,11.80
2018-06-30T00:58:37.187Z,14.30
2018-06-30T01:01:06.068Z,13.67
2018-06-30T01:03:34.966Z,13.93
2018-06-30T01:06:03.813Z,13.47
2018-06-30T01:08:32.721Z,13.73
2018-06-30T01:11:01.319Z,15.27
2018-06-30T01:13:30.494Z,14.63
2018-06-30T01:15:59.421Z,15.67
2018-06-30T01:18:28.694Z,15.10
2018-06-30T01:20:58.595Z,14.23
2018-06-30T01:23:27.392Z,14.83
2018-06-30T01:25:56.089Z,13.70
2018-06-30T01:28:25.511Z,14.73
2018-06-30T01:30:54.296Z,15.17
2018-06-30T01:33:23.002Z,14.20
2018-06-30T01:35:51.723Z,15.70
2018-06-30T01:38:20.965Z,15.60
2018-06-30T01:40:50.058Z,16.60
2018-06-30T01:43:18.590Z,14.87
2018-06-30T01:45:47.608Z,15.50
2018-06-30T01:48:18.875Z,14.80
2018-06-30T01:50:47.554Z,14.87
2018-06-30T01:53:16.551Z,16.00
2018-06-30T01:55:46.230Z,16.23
2018-06-30T01:58:15.040Z,15.10
2018-06-30T02:00:43.848Z,15.17
2018-06-30T02:03:16.346Z,17.87
2018-06-30T02:05:46.287Z,16.73
2018-06-30T02:08:16.382Z,17.37
2018-06-30T02:10:45.464Z,15.60
2018-06-30T02:13:14.399Z,17.33
2018-06-30T02:15:43.077Z,15.47
2018-06-30T02:18:12.099Z,16.27
2018-06-30T02:20:40.701Z,16.50
2018-06-30T02:23:09.510Z,16.77
2018-06-30T02:25:40.351Z,17.40
2018-06-30T02:28:09.013Z,16.53
2018-06-30T02:30:39.013Z,19.47
2018-06-30T02:33:07.814Z,18.00
2018-06-30T02:35:38.066Z,18.30
2018-06-30T02:38:08.544Z,17.93
2018-06-30T02:40:39.651Z,18.97
2018-06-30T02:43:08.359Z,17.80
2018-06-30T02:45:37.315Z,17.73
2018-06-30T02:48:05.962Z,19.07
2018-06-30T02:50:34.853Z,19.23
2018-06-30T02:53:03.733Z,21.57
2018-06-30T02:55:32.391Z,19.60
2018-06-30T02:58:09.023Z,17.40
2018-06-30T03:00:43.309Z,19.40
2018-06-30T03:03:12.800Z,17.57
2018-06-30T03:05:47.161Z,19.30
2018-06-30T03:08:16.426Z,19.50
2018-06-30T03:10:48.656Z,18.80
2018-06-30T03:13:21.649Z,18.53
2018-06-30T03:15:53.384Z,18.40
2018-06-30T03:18:36.459Z,18.03
2018-06-30T03:21:06.578Z,17.60
2018-06-30T03:23:40.106Z,19.87
2018-06-30T03:26:09.169Z,20.27
2018-06-30T03:28:39.402Z,19.73
2018-06-30T03:31:09.244Z,20.43
2018-06-30T03:33:40.584Z,20.23
2018-06-30T03:36:09.814Z,19.50
2018-06-30T03:38:46.117Z,19.50
2018-06-30T03:41:15.308Z,17.60
2018-06-30T03:43:45.631Z,19.47
2018-06-30T03:46:18.333Z,17.80
2018-06-30T03:48:46.880Z,19.00
2018-06-30T03:51:18.518Z,19.83
2018-06-30T03:53:49.629Z,17.17
2018-06-30T03:56:27.443Z,17.53
2018-06-30T03:59:00.991Z,17.60
2018-06-30T04:01:38.990Z,18.03
2018-06-30T04:04:13.146Z,16.17
2018-06-30T04:06:45.434Z,18.53
2018-06-30T04:09:15.025Z,17.13
2018-06-30T04:11:51.957Z,18.90
2018-06-30T04:14:34.431Z,16.90
2018-06-30T04:17:07.379Z,17.00
2018-06-30T04:19:44.127Z,15.97
2018-06-30T04:22:15.778Z,16.07
2018-06-30T04:24:50.169Z,15.40
2018-06-30T04:27:25.412Z,15.20
2018-06-30T04:29:58.191Z,15.47
2018-06-30T04:32:30.742Z,14.40
2018-06-30T04:35:00.501Z,14.73
2018-06-30T04:37:35.138Z,12.30
2018-06-30T04:40:06.761Z,13.00
2018-06-30T04:42:43.430Z,13.00
2018-06-30T04:45:12.667Z,12.27
2018-06-30T04:47:42.547Z,13.33
2018-06-30T04:50:16.862Z,12.40
2018-06-30T04:52:45.746Z,13.20
2018-06-30T04:55:16.858Z,12.27
2018-06-30T04:57:46.827Z,11.40
2018-06-30T05:00:16.230Z,11.30
2018-06-30T05:02:52.295Z,10.50
2018-06-30T05:05:21.154Z,10.27
2018-06-30T05:07:50.503Z,9.90
2018-06-30T05:10:21.615Z,11.00
2018-06-30T05:20:56.751Z,9.17
2018-06-30T05:23:32.049Z,8.80
2018-06-30T05:26:02.439Z,8.17
2018-06-30T05:28:35.455Z,9.10
2018-06-30T06:43:18.331Z,5.90
2018-06-30T06:45:51.763Z,5.60
2018-06-30T06:48:28.172Z,5.50
2018-06-30T06:50:57.934Z,5.60
2018-06-30T06:54:34.157Z,5.33
2018-06-30T07:00:25.716Z,5.50
2018-06-30T07:03:04.287Z,5.00
2018-06-30T07:05:43.120Z,5.60
2018-06-30T07:11:11.960Z,4.97
2018-06-30T07:59:25.791Z,5.17
